sensor_id;sensor_type;location;lat;lon;timestamp;P1;durP1;ratioP1;P2;durP2;ratioP2
30934;SDS011;51033;42.648;23.292;2022-07-12T00:00:44;5.97;;;1.52;;
30934;SDS011;51033;42.648;23.292;2022-07-12T00:03:09;1.33;;;1.20;;
30934;SDS011;51033;42.648;23.292;2022-07-12T00:05:35;3.00;;;1.10;;
30934;SDS011;51033;42.648;23.292;2022-07-12T00:08:01;2.83;;;1.10;;
30934;SDS011;51033;42.648;23.292;2022-07-12T00:10:27;1.85;;;1.02;;
30934;SDS011;51033;42.648;23.292;2022-07-12T00:12:52;0.95;;;0.88;;
30934;SDS011;51033;42.648;23.292;2022-07-12T00:15:19;3.45;;;0.90;;
30934;SDS011;51033;42.648;23.292;2022-07-12T00:17:45;1.05;;;1.05;;
30934;SDS011;51033;42.648;23.292;2022-07-12T00:20:11;1.45;;;0.90;;
30934;SDS011;51033;42.648;23.292;2022-07-12T00:22:36;2.70;;;1.42;;
30934;SDS011;51033;42.648;23.292;2022-07-12T00:25:02;0.82;;;0.80;;
30934;SDS011;51033;42.648;23.292;2022-07-12T00:27:28;2.45;;;0.90;;
30934;SDS011;51033;42.648;23.292;2022-07-12T00:29:53;1.85;;;0.98;;
30934;SDS011;51033;42.648;23.292;2022-07-12T00:32:19;1.35;;;0.88;;
30934;SDS011;51033;42.648;23.292;2022-07-12T00:34:45;1.58;;;1.00;;
30934;SDS011;51033;42.648;23.292;2022-07-12T00:37:10;1.73;;;1.48;;
30934;SDS011;51033;42.648;23.292;2022-07-12T00:39:35;1.88;;;1.02;;
30934;SDS011;51033;42.648;23.292;2022-07-12T00:42:01;2.47;;;1.15;;
30934;SDS011;51033;42.648;23.292;2022-07-12T00:44:26;1.17;;;0.93;;
30934;SDS011;51033;42.648;23.292;2022-07-12T00:46:52;1.50;;;1.40;;
30934;SDS011;51033;42.648;23.292;2022-07-12T00:49:18;1.10;;;1.00;;
30934;SDS011;51033;42.648;23.292;2022-07-12T00:51:43;1.73;;;1.30;;
30934;SDS011;51033;42.648;23.292;2022-07-12T00:54:09;1.25;;;1.10;;
30934;SDS011;51033;42.648;23.292;2022-07-12T00:56:35;3.13;;;1.05;;
30934;SDS011;51033;42.648;23.292;2022-07-12T00:59:02;1.38;;;1.27;;
30934;SDS011;51033;42.648;23.292;2022-07-12T01:01:28;2.50;;;1.17;;
30934;SDS011;51033;42.648;23.292;2022-07-12T01:03:53;1.30;;;1.10;;
30934;SDS011;51033;42.648;23.292;2022-07-12T01:06:19;1.98;;;1.00;;
30934;SDS011;51033;42.648;23.292;2022-07-12T01:08:45;2.72;;;1.15;;
30934;SDS011;51033;42.648;23.292;2022-07-12T01:11:11;1.45;;;1.20;;
30934;SDS011;51033;42.648;23.292;2022-07-12T01:13:37;1.95;;;1.33;;
30934;SDS011;51033;42.648;23.292;2022-07-12T01:16:03;2.20;;;1.30;;
30934;SDS011;51033;42.648;23.292;2022-07-12T01:18:30;1.58;;;1.10;;
30934;SDS011;51033;42.648;23.292;2022-07-12T01:20:56;2.25;;;1.20;;
30934;SDS011;51033;42.648;23.292;2022-07-12T01:23:22;4.50;;;1.20;;
30934;SDS011;51033;42.648;23.292;2022-07-12T01:25:49;1.67;;;1.02;;
30934;SDS011;51033;42.648;23.292;2022-07-12T01:28:15;2.45;;;1.00;;
30934;SDS011;51033;42.648;23.292;2022-07-12T01:30:40;2.30;;;1.00;;
30934;SDS011;51033;42.648;23.292;2022-07-12T01:33:06;3.85;;;1.33;;
30934;SDS011;51033;42.648;23.292;2022-07-12T01:35:32;2.40;;;0.93;;
30934;SDS011;51033;42.648;23.292;2022-07-12T01:37:58;1.88;;;1.20;;
30934;SDS011;51033;42.648;23.292;2022-07-12T01:40:24;1.27;;;0.90;;
30934;SDS011;51033;42.648;23.292;2022-07-12T01:42:49;1.55;;;1.42;;
30934;SDS011;51033;42.648;23.292;2022-07-12T01:45:16;1.75;;;1.33;;
30934;SDS011;51033;42.648;23.292;2022-07-12T01:47:41;1.80;;;1.23;;
30934;SDS011;51033;42.648;23.292;2022-07-12T01:50:07;1.60;;;1.00;;
30934;SDS011;51033;42.648;23.292;2022-07-12T01:52:34;1.35;;;1.05;;
30934;SDS011;51033;42.648;23.292;2022-07-12T01:55:01;2.10;;;1.75;;
30934;SDS011;51033;42.648;23.292;2022-07-12T01:57:27;2.58;;;1.00;;
30934;SDS011;51033;42.648;23.292;2022-07-12T01:59:53;3.85;;;1.10;;
30934;SDS011;51033;42.648;23.292;2022-07-12T02:02:20;3.00;;;1.10;;
30934;SDS011;51033;42.648;23.292;2022-07-12T02:04:46;2.95;;;1.30;;
30934;SDS011;51033;42.648;23.292;2022-07-12T02:07:13;2.65;;;1.38;;
30934;SDS011;51033;42.648;23.292;2022-07-12T02:09:38;2.45;;;1.30;;
30934;SDS011;51033;42.648;23.292;2022-07-12T02:12:04;2.05;;;1.15;;
30934;SDS011;51033;42.648;23.292;2022-07-12T02:14:29;1.77;;;1.08;;
30934;SDS011;51033;42.648;23.292;2022-07-12T02:16:55;3.30;;;2.15;;
30934;SDS011;51033;42.648;23.292;2022-07-12T02:19:20;1.65;;;1.00;;
30934;SDS011;51033;42.648;23.292;2022-07-12T02:21:46;3.15;;;1.42;;
30934;SDS011;51033;42.648;23.292;2022-07-12T02:24:11;4.03;;;1.13;;
30934;SDS011;51033;42.648;23.292;2022-07-12T02:26:36;2.95;;;1.00;;
30934;SDS011;51033;42.648;23.292;2022-07-12T02:29:03;2.80;;;1.33;;
30934;SDS011;51033;42.648;23.292;2022-07-12T02:31:29;1.50;;;1.08;;
30934;SDS011;51033;42.648;23.292;2022-07-12T02:33:55;1.65;;;1.20;;
30934;SDS011;51033;42.648;23.292;2022-07-12T02:36:21;9.60;;;1.60;;
30934;SDS011;51033;42.648;23.292;2022-07-12T02:38:46;1.88;;;1.13;;
30934;SDS011;51033;42.648;23.292;2022-07-12T02:41:12;2.08;;;1.55;;
30934;SDS011;51033;42.648;23.292;2022-07-12T02:43:37;1.25;;;1.10;;
30934;SDS011;51033;42.648;23.292;2022-07-12T02:46:04;1.92;;;1.30;;
30934;SDS011;51033;42.648;23.292;2022-07-12T02:48:31;4.55;;;1.70;;
30934;SDS011;51033;42.648;23.292;2022-07-12T02:50:56;1.60;;;1.48;;
30934;SDS011;51033;42.648;23.292;2022-07-12T02:53:22;3.10;;;1.20;;
30934;SDS011;51033;42.648;23.292;2022-07-12T02:55:48;4.85;;;1.40;;
30934;SDS011;51033;42.648;23.292;2022-07-12T02:58:14;5.68;;;2.10;;
30934;SDS011;51033;42.648;23.292;2022-07-12T03:00:39;3.97;;;1.83;;
30934;SDS011;51033;42.648;23.292;2022-07-12T03:03:05;3.65;;;2.00;;
30934;SDS011;51033;42.648;23.292;2022-07-12T03:05:34;2.08;;;1.88;;
30934;SDS011;51033;42.648;23.292;2022-07-12T03:08:00;2.22;;;2.03;;
30934;SDS011;51033;42.648;23.292;2022-07-12T03:10:26;1.65;;;1.55;;
30934;SDS011;51033;42.648;23.292;2022-07-12T03:12:51;3.10;;;2.28;;
30934;SDS011;51033;42.648;23.292;2022-07-12T03:15:17;5.00;;;2.38;;
30934;SDS011;51033;42.648;23.292;2022-07-12T03:17:42;3.60;;;2.58;;
30934;SDS011;51033;42.648;23.292;2022-07-12T03:20:08;2.65;;;1.85;;
30934;SDS011;51033;42.648;23.292;2022-07-12T03:22:39;2.60;;;2.15;;
30934;SDS011;51033;42.648;23.292;2022-07-12T03:25:05;5.35;;;2.45;;
30934;SDS011;51033;42.648;23.292;2022-07-12T03:27:33;2.70;;;2.20;;
30934;SDS011;51033;42.648;23.292;2022-07-12T03:29:58;3.05;;;2.25;;
30934;SDS011;51033;42.648;23.292;2022-07-12T03:32:24;4.93;;;2.08;;
30934;SDS011;51033;42.648;23.292;2022-07-12T03:34:49;2.72;;;2.30;;
30934;SDS011;51033;42.648;23.292;2022-07-12T03:37:15;3.35;;;2.20;;
30934;SDS011;51033;42.648;23.292;2022-07-12T03:39:40;3.50;;;2.50;;
30934;SDS011;51033;42.648;23.292;2022-07-12T03:42:05;5.47;;;2.40;;
30934;SDS011;51033;42.648;23.292;2022-07-12T03:44:33;3.25;;;2.70;;
30934;SDS011;51033;42.648;23.292;2022-07-12T03:46:58;3.65;;;2.45;;
30934;SDS011;51033;42.648;23.292;2022-07-12T03:49:24;4.45;;;2.42;;
30934;SDS011;51033;42.648;23.292;2022-07-12T03:51:49;2.50;;;2.20;;
30934;SDS011;51033;42.648;23.292;2022-07-12T03:54:15;4.18;;;3.08;;
30934;SDS011;51033;42.648;23.292;2022-07-12T03:56:40;3.45;;;2.97;;
30934;SDS011;51033;42.648;23.292;2022-07-12T03:59:24;3.38;;;2.90;;
30934;SDS011;51033;42.648;23.292;2022-07-12T04:01:49;2.90;;;2.30;;
30934;SDS011;51033;42.648;23.292;2022-07-12T04:04:15;4.68;;;2.75;;
30934;SDS011;51033;42.648;23.292;2022-07-12T04:06:40;3.40;;;2.60;;
30934;SDS011;51033;42.648;23.292;2022-07-12T04:09:06;4.07;;;2.83;;
30934;SDS011;51033;42.648;23.292;2022-07-12T04:11:31;2.65;;;2.45;;
30934;SDS011;51033;42.648;23.292;2022-07-12T04:13:57;2.70;;;2.20;;
30934;SDS011;51033;42.648;23.292;2022-07-12T04:16:23;4.53;;;2.80;;
30934;SDS011;51033;42.648;23.292;2022-07-12T04:18:49;2.72;;;2.53;;
30934;SDS011;51033;42.648;23.292;2022-07-12T04:21:14;3.35;;;2.42;;
30934;SDS011;51033;42.648;23.292;2022-07-12T04:23:40;3.78;;;3.05;;
30934;SDS011;51033;42.648;23.292;2022-07-12T04:26:05;2.60;;;2.40;;
30934;SDS011;51033;42.648;23.292;2022-07-12T04:28:30;3.15;;;2.85;;
30934;SDS011;51033;42.648;23.292;2022-07-12T04:30:56;2.60;;;2.40;;
30934;SDS011;51033;42.648;23.292;2022-07-12T04:33:21;3.85;;;2.72;;
30934;SDS011;51033;42.648;23.292;2022-07-12T04:35:47;6.38;;;3.83;;
30934;SDS011;51033;42.648;23.292;2022-07-12T04:38:12;3.85;;;2.63;;
30934;SDS011;51033;42.648;23.292;2022-07-12T04:40:38;5.57;;;2.70;;
30934;SDS011;51033;42.648;23.292;2022-07-12T04:43:03;2.83;;;2.40;;
30934;SDS011;51033;42.648;23.292;2022-07-12T04:45:29;3.22;;;2.70;;
30934;SDS011;51033;42.648;23.292;2022-07-12T04:47:54;3.65;;;2.95;;
30934;SDS011;51033;42.648;23.292;2022-07-12T04:50:20;4.25;;;3.20;;
30934;SDS011;51033;42.648;23.292;2022-07-12T04:52:45;5.43;;;3.35;;
30934;SDS011;51033;42.648;23.292;2022-07-12T04:55:10;4.78;;;3.30;;
30934;SDS011;51033;42.648;23.292;2022-07-12T04:57:36;4.97;;;2.58;;
30934;SDS011;51033;42.648;23.292;2022-07-12T05:00:03;5.25;;;2.95;;
30934;SDS011;51033;42.648;23.292;2022-07-12T05:02:30;10.05;;;3.60;;
30934;SDS011;51033;42.648;23.292;2022-07-12T05:04:55;9.98;;;4.03;;
30934;SDS011;51033;42.648;23.292;2022-07-12T05:07:21;3.78;;;3.40;;
30934;SDS011;51033;42.648;23.292;2022-07-12T05:09:47;4.55;;;3.20;;
30934;SDS011;51033;42.648;23.292;2022-07-12T05:12:12;4.88;;;3.25;;
30934;SDS011;51033;42.648;23.292;2022-07-12T05:14:37;5.30;;;3.65;;
30934;SDS011;51033;42.648;23.292;2022-07-12T05:17:03;5.30;;;3.63;;
30934;SDS011;51033;42.648;23.292;2022-07-12T05:19:28;4.93;;;4.00;;
30934;SDS011;51033;42.648;23.292;2022-07-12T05:21:54;4.80;;;3.65;;
30934;SDS011;51033;42.648;23.292;2022-07-12T05:24:19;5.15;;;4.15;;
30934;SDS011;51033;42.648;23.292;2022-07-12T05:26:45;4.97;;;4.18;;
30934;SDS011;51033;42.648;23.292;2022-07-12T05:29:10;5.07;;;3.70;;
30934;SDS011;51033;42.648;23.292;2022-07-12T05:31:35;5.55;;;3.38;;
30934;SDS011;51033;42.648;23.292;2022-07-12T05:34:01;8.68;;;3.45;;
30934;SDS011;51033;42.648;23.292;2022-07-12T05:36:27;6.70;;;3.85;;
30934;SDS011;51033;42.648;23.292;2022-07-12T05:38:53;5.65;;;3.25;;
30934;SDS011;51033;42.648;23.292;2022-07-12T05:41:19;7.70;;;4.15;;
30934;SDS011;51033;42.648;23.292;2022-07-12T05:43:44;11.05;;;3.95;;
30934;SDS011;51033;42.648;23.292;2022-07-12T05:46:10;11.55;;;3.70;;
30934;SDS011;51033;42.648;23.292;2022-07-12T05:48:36;5.35;;;4.35;;
30934;SDS011;51033;42.648;23.292;2022-07-12T05:51:02;3.65;;;1.65;;
30934;SDS011;51033;42.648;23.292;2022-07-12T05:53:47;6.18;;;2.30;;
30934;SDS011;51033;42.648;23.292;2022-07-12T05:56:12;2.13;;;1.55;;
30934;SDS011;51033;42.648;23.292;2022-07-12T05:58:39;2.70;;;1.27;;
30934;SDS011;51033;42.648;23.292;2022-07-12T06:01:05;3.22;;;1.33;;
30934;SDS011;51033;42.648;23.292;2022-07-12T06:03:31;1.30;;;1.10;;
30934;SDS011;51033;42.648;23.292;2022-07-12T06:05:56;1.15;;;0.90;;
30934;SDS011;51033;42.648;23.292;2022-07-12T06:08:22;3.67;;;1.50;;
30934;SDS011;51033;42.648;23.292;2022-07-12T06:10:47;3.65;;;1.20;;
30934;SDS011;51033;42.648;23.292;2022-07-12T06:13:13;5.15;;;1.10;;
30934;SDS011;51033;42.648;23.292;2022-07-12T06:15:38;1.70;;;1.00;;
30934;SDS011;51033;42.648;23.292;2022-07-12T06:18:04;4.97;;;1.17;;
30934;SDS011;51033;42.648;23.292;2022-07-12T06:20:29;4.55;;;1.20;;
30934;SDS011;51033;42.648;23.292;2022-07-12T06:22:55;2.45;;;1.30;;
30934;SDS011;51033;42.648;23.292;2022-07-12T06:25:21;1.88;;;1.10;;
30934;SDS011;51033;42.648;23.292;2022-07-12T06:27:46;2.55;;;1.17;;
30934;SDS011;51033;42.648;23.292;2022-07-12T06:30:14;1.20;;;1.10;;
30934;SDS011;51033;42.648;23.292;2022-07-12T06:32:40;2.38;;;1.00;;
30934;SDS011;51033;42.648;23.292;2022-07-12T06:35:06;1.70;;;0.93;;
30934;SDS011;51033;42.648;23.292;2022-07-12T06:37:31;2.65;;;1.20;;
30934;SDS011;51033;42.648;23.292;2022-07-12T06:39:57;2.65;;;1.30;;
30934;SDS011;51033;42.648;23.292;2022-07-12T06:42:22;3.38;;;1.23;;
30934;SDS011;51033;42.648;23.292;2022-07-12T06:44:48;2.40;;;1.20;;
30934;SDS011;51033;42.648;23.292;2022-07-12T06:47:13;1.23;;;1.10;;
30934;SDS011;51033;42.648;23.292;2022-07-12T06:49:38;4.10;;;1.40;;
30934;SDS011;51033;42.648;23.292;2022-07-12T06:52:04;1.83;;;1.00;;
30934;SDS011;51033;42.648;23.292;2022-07-12T06:54:30;1.58;;;0.95;;
30934;SDS011;51033;42.648;23.292;2022-07-12T06:56:55;5.75;;;1.25;;
30934;SDS011;51033;42.648;23.292;2022-07-12T06:59:20;1.90;;;1.20;;
30934;SDS011;51033;42.648;23.292;2022-07-12T07:01:46;2.33;;;1.38;;
30934;SDS011;51033;42.648;23.292;2022-07-12T07:04:11;1.45;;;1.35;;
30934;SDS011;51033;42.648;23.292;2022-07-12T07:06:37;3.08;;;1.20;;
30934;SDS011;51033;42.648;23.292;2022-07-12T07:09:02;1.05;;;0.88;;
30934;SDS011;51033;42.648;23.292;2022-07-12T07:11:32;3.58;;;1.52;;
30934;SDS011;51033;42.648;23.292;2022-07-12T07:13:59;1.30;;;0.93;;
30934;SDS011;51033;42.648;23.292;2022-07-12T07:16:24;2.45;;;1.20;;
30934;SDS011;51033;42.648;23.292;2022-07-12T07:18:49;1.55;;;1.10;;
30934;SDS011;51033;42.648;23.292;2022-07-12T07:21:15;3.55;;;1.45;;
30934;SDS011;51033;42.648;23.292;2022-07-12T07:23:40;2.10;;;1.20;;
30934;SDS011;51033;42.648;23.292;2022-07-12T07:26:06;1.70;;;1.13;;
30934;SDS011;51033;42.648;23.292;2022-07-12T07:28:31;6.15;;;1.20;;
30934;SDS011;51033;42.648;23.292;2022-07-12T07:30:56;7.38;;;1.10;;
30934;SDS011;51033;42.648;23.292;2022-07-12T07:33:23;3.70;;;0.98;;
30934;SDS011;51033;42.648;23.292;2022-07-12T07:35:50;3.40;;;0.82;;
30934;SDS011;51033;42.648;23.292;2022-07-12T07:38:17;1.65;;;0.80;;
30934;SDS011;51033;42.648;23.292;2022-07-12T07:40:43;1.88;;;0.95;;
30934;SDS011;51033;42.648;23.292;2022-07-12T07:43:08;1.13;;;0.93;;
30934;SDS011;51033;42.648;23.292;2022-07-12T07:45:34;1.30;;;0.93;;
30934;SDS011;51033;42.648;23.292;2022-07-12T07:48:00;1.45;;;1.25;;
30934;SDS011;51033;42.648;23.292;2022-07-12T07:50:25;2.33;;;0.90;;
30934;SDS011;51033;42.648;23.292;2022-07-12T07:52:51;8.23;;;0.73;;
30934;SDS011;51033;42.648;23.292;2022-07-12T07:55:17;2.15;;;1.38;;
30934;SDS011;51033;42.648;23.292;2022-07-12T07:57:42;4.18;;;0.80;;
30934;SDS011;51033;42.648;23.292;2022-07-12T08:00:08;0.98;;;0.88;;
30934;SDS011;51033;42.648;23.292;2022-07-12T08:02:34;1.70;;;1.25;;
30934;SDS011;51033;42.648;23.292;2022-07-12T08:05:00;2.05;;;0.88;;
30934;SDS011;51033;42.648;23.292;2022-07-12T08:07:25;1.20;;;0.90;;
30934;SDS011;51033;42.648;23.292;2022-07-12T08:09:51;4.40;;;1.15;;
30934;SDS011;51033;42.648;23.292;2022-07-12T08:12:16;6.45;;;1.48;;
30934;SDS011;51033;42.648;23.292;2022-07-12T08:14:42;1.35;;;0.75;;
30934;SDS011;51033;42.648;23.292;2022-07-12T08:17:07;0.73;;;0.65;;
30934;SDS011;51033;42.648;23.292;2022-07-12T08:19:33;1.58;;;0.65;;
30934;SDS011;51033;42.648;23.292;2022-07-12T08:21:59;2.05;;;0.98;;
30934;SDS011;51033;42.648;23.292;2022-07-12T08:24:24;0.75;;;0.60;;
30934;SDS011;51033;42.648;23.292;2022-07-12T08:26:49;6.43;;;0.88;;
30934;SDS011;51033;42.648;23.292;2022-07-12T08:29:15;2.22;;;0.95;;
30934;SDS011;51033;42.648;23.292;2022-07-12T08:31:41;0.77;;;0.70;;
30934;SDS011;51033;42.648;23.292;2022-07-12T08:34:06;0.70;;;0.60;;
30934;SDS011;51033;42.648;23.292;2022-07-12T08:36:32;1.70;;;1.00;;
30934;SDS011;51033;42.648;23.292;2022-07-12T08:38:57;0.85;;;0.70;;
30934;SDS011;51033;42.648;23.292;2022-07-12T08:41:23;2.70;;;0.80;;
30934;SDS011;51033;42.648;23.292;2022-07-12T08:43:48;1.92;;;0.73;;
30934;SDS011;51033;42.648;23.292;2022-07-12T08:46:14;1.70;;;0.80;;
30934;SDS011;51033;42.648;23.292;2022-07-12T08:48:41;3.17;;;1.05;;
30934;SDS011;51033;42.648;23.292;2022-07-12T08:51:09;4.97;;;0.95;;
30934;SDS011;51033;42.648;23.292;2022-07-12T08:53:35;2.28;;;0.90;;
30934;SDS011;51033;42.648;23.292;2022-07-12T08:56:02;0.68;;;0.60;;
30934;SDS011;51033;42.648;23.292;2022-07-12T08:58:28;4.18;;;1.00;;
30934;SDS011;51033;42.648;23.292;2022-07-12T09:00:54;1.10;;;0.80;;
30934;SDS011;51033;42.648;23.292;2022-07-12T09:03:19;2.25;;;0.82;;
30934;SDS011;51033;42.648;23.292;2022-07-12T09:05:49;3.40;;;0.80;;
30934;SDS011;51033;42.648;23.292;2022-07-12T09:08:18;3.25;;;1.20;;
30934;SDS011;51033;42.648;23.292;2022-07-12T09:11:03;0.77;;;0.60;;
30934;SDS011;51033;42.648;23.292;2022-07-12T09:16:19;0.75;;;0.63;;
30934;SDS011;51033;42.648;23.292;2022-07-12T09:18:46;1.92;;;0.57;;
30934;SDS011;51033;42.648;23.292;2022-07-12T09:21:21;0.98;;;0.70;;
30934;SDS011;51033;42.648;23.292;2022-07-12T09:24:06;0.85;;;0.60;;
30934;SDS011;51033;42.648;23.292;2022-07-12T09:26:32;0.63;;;0.60;;
30934;SDS011;51033;42.648;23.292;2022-07-12T09:29:04;0.65;;;0.60;;
30934;SDS011;51033;42.648;23.292;2022-07-12T09:31:41;1.05;;;0.82;;
30934;SDS011;51033;42.648;23.292;2022-07-12T09:34:28;1.00;;;0.70;;
30934;SDS011;51033;42.648;23.292;2022-07-12T09:37:13;2.10;;;0.70;;
30934;SDS011;51033;42.648;23.292;2022-07-12T09:39:39;2.47;;;0.60;;
30934;SDS011;51033;42.648;23.292;2022-07-12T09:42:06;0.77;;;0.50;;
30934;SDS011;51033;42.648;23.292;2022-07-12T09:44:37;0.90;;;0.77;;
30934;SDS011;51033;42.648;23.292;2022-07-12T09:47:03;0.77;;;0.70;;
30934;SDS011;51033;42.648;23.292;2022-07-12T09:49:29;1.10;;;0.88;;
30934;SDS011;51033;42.648;23.292;2022-07-12T09:51:55;1.38;;;0.70;;
30934;SDS011;51033;42.648;23.292;2022-07-12T09:54:25;3.38;;;0.93;;
30934;SDS011;51033;42.648;23.292;2022-07-12T09:56:53;1.65;;;0.80;;
30934;SDS011;51033;42.648;23.292;2022-07-12T09:59:22;0.68;;;0.55;;
30934;SDS011;51033;42.648;23.292;2022-07-12T10:01:50;1.27;;;0.73;;
30934;SDS011;51033;42.648;23.292;2022-07-12T10:04:20;1.73;;;0.63;;
30934;SDS011;51033;42.648;23.292;2022-07-12T10:06:46;2.38;;;0.50;;
30934;SDS011;51033;42.648;23.292;2022-07-12T10:09:12;0.60;;;0.60;;
30934;SDS011;51033;42.648;23.292;2022-07-12T10:11:38;1.42;;;0.50;;
30934;SDS011;51033;42.648;23.292;2022-07-12T10:14:06;0.80;;;0.60;;
30934;SDS011;51033;42.648;23.292;2022-07-12T10:16:36;1.90;;;0.77;;
30934;SDS011;51033;42.648;23.292;2022-07-12T10:21:49;1.00;;;0.77;;
30934;SDS011;51033;42.648;23.292;2022-07-12T10:26:59;1.58;;;0.45;;
30934;SDS011;51033;42.648;23.292;2022-07-12T10:29:48;2.15;;;0.60;;
30934;SDS011;51033;42.648;23.292;2022-07-12T10:32:23;0.75;;;0.75;;
30934;SDS011;51033;42.648;23.292;2022-07-12T10:35:02;0.82;;;0.60;;
30934;SDS011;51033;42.648;23.292;2022-07-12T10:37:33;0.93;;;0.60;;
30934;SDS011;51033;42.648;23.292;2022-07-12T10:40:13;1.52;;;0.70;;
30934;SDS011;51033;42.648;23.292;2022-07-12T10:45:33;5.18;;;0.60;;
30934;SDS011;51033;42.648;23.292;2022-07-12T10:48:04;2.05;;;0.52;;
30934;SDS011;51033;42.648;23.292;2022-07-12T11:01:38;0.60;;;0.50;;
30934;SDS011;51033;42.648;23.292;2022-07-12T11:04:09;0.90;;;0.65;;
30934;SDS011;51033;42.648;23.292;2022-07-12T11:06:39;2.05;;;0.90;;
30934;SDS011;51033;42.648;23.292;2022-07-12T11:09:07;3.70;;;0.70;;
30934;SDS011;51033;42.648;23.292;2022-07-12T11:11:35;1.55;;;0.60;;
30934;SDS011;51033;42.648;23.292;2022-07-12T11:14:04;0.60;;;0.60;;
30934;SDS011;51033;42.648;23.292;2022-07-12T11:16:30;2.72;;;0.77;;
30934;SDS011;51033;42.648;23.292;2022-07-12T11:18:55;0.47;;;0.47;;
30934;SDS011;51033;42.648;23.292;2022-07-12T11:21:21;0.60;;;0.52;;
30934;SDS011;51033;42.648;23.292;2022-07-12T11:23:48;1.25;;;0.80;;
30934;SDS011;51033;42.648;23.292;2022-07-12T11:26:15;0.95;;;0.85;;
30934;SDS011;51033;42.648;23.292;2022-07-12T11:28:41;1.38;;;0.70;;
30934;SDS011;51033;42.648;23.292;2022-07-12T11:31:12;1.55;;;0.68;;
30934;SDS011;51033;42.648;23.292;2022-07-12T11:33:43;3.70;;;0.73;;
30934;SDS011;51033;42.648;23.292;2022-07-12T11:36:11;0.70;;;0.70;;
30934;SDS011;51033;42.648;23.292;2022-07-12T11:38:38;1.60;;;0.73;;
30934;SDS011;51033;42.648;23.292;2022-07-12T11:41:06;2.45;;;0.80;;
30934;SDS011;51033;42.648;23.292;2022-07-12T11:43:33;0.60;;;0.60;;
30934;SDS011;51033;42.648;23.292;2022-07-12T11:45:59;1.38;;;0.70;;
30934;SDS011;51033;42.648;23.292;2022-07-12T11:48:25;0.90;;;0.80;;
30934;SDS011;51033;42.648;23.292;2022-07-12T11:50:52;1.67;;;1.27;;
30934;SDS011;51033;42.648;23.292;2022-07-12T11:53:22;1.23;;;0.70;;
30934;SDS011;51033;42.648;23.292;2022-07-12T11:55:50;1.70;;;0.95;;
30934;SDS011;51033;42.648;23.292;2022-07-12T11:58:17;1.13;;;0.80;;
30934;SDS011;51033;42.648;23.292;2022-07-12T12:00:46;2.00;;;0.82;;
30934;SDS011;51033;42.648;23.292;2022-07-12T12:03:13;1.27;;;0.88;;
30934;SDS011;51033;42.648;23.292;2022-07-12T12:05:41;1.42;;;0.90;;
30934;SDS011;51033;42.648;23.292;2022-07-12T12:08:07;1.67;;;0.85;;
30934;SDS011;51033;42.648;23.292;2022-07-12T12:10:34;0.70;;;0.70;;
30934;SDS011;51033;42.648;23.292;2022-07-12T12:13:00;1.40;;;1.30;;
30934;SDS011;51033;42.648;23.292;2022-07-12T12:15:29;0.90;;;0.88;;
30934;SDS011;51033;42.648;23.292;2022-07-12T12:18:00;1.00;;;0.90;;
30934;SDS011;51033;42.648;23.292;2022-07-12T12:20:28;0.93;;;0.70;;
30934;SDS011;51033;42.648;23.292;2022-07-12T12:23:00;1.08;;;0.70;;
30934;SDS011;51033;42.648;23.292;2022-07-12T12:25:29;0.80;;;0.70;;
30934;SDS011;51033;42.648;23.292;2022-07-12T12:30:26;1.00;;;0.60;;
30934;SDS011;51033;42.648;23.292;2022-07-12T12:35:31;3.30;;;0.85;;
30934;SDS011;51033;42.648;23.292;2022-07-12T12:38:11;0.80;;;0.80;;
30934;SDS011;51033;42.648;23.292;2022-07-12T12:40:38;0.70;;;0.60;;
30934;SDS011;51033;42.648;23.292;2022-07-12T12:43:05;3.28;;;0.93;;
30934;SDS011;51033;42.648;23.292;2022-07-12T12:45:35;0.60;;;0.60;;
30934;SDS011;51033;42.648;23.292;2022-07-12T12:48:01;0.90;;;0.68;;
30934;SDS011;51033;42.648;23.292;2022-07-12T12:50:38;1.02;;;0.70;;
30934;SDS011;51033;42.648;23.292;2022-07-12T12:55:38;0.98;;;0.70;;
30934;SDS011;51033;42.648;23.292;2022-07-12T12:58:04;1.13;;;1.05;;
30934;SDS011;51033;42.648;23.292;2022-07-12T13:00:30;1.95;;;0.77;;
30934;SDS011;51033;42.648;23.292;2022-07-12T13:02:56;1.05;;;0.80;;
30934;SDS011;51033;42.648;23.292;2022-07-12T13:05:25;4.07;;;0.73;;
30934;SDS011;51033;42.648;23.292;2022-07-12T13:07:51;0.88;;;0.70;;
30934;SDS011;51033;42.648;23.292;2022-07-12T13:10:17;2.35;;;1.15;;
30934;SDS011;51033;42.648;23.292;2022-07-12T13:12:42;1.77;;;0.90;;
30934;SDS011;51033;42.648;23.292;2022-07-12T13:15:08;0.60;;;0.60;;
30934;SDS011;51033;42.648;23.292;2022-07-12T13:17:34;1.88;;;0.82;;
30934;SDS011;51033;42.648;23.292;2022-07-12T13:19:59;2.15;;;0.60;;
30934;SDS011;51033;42.648;23.292;2022-07-12T13:22:24;0.80;;;0.50;;
30934;SDS011;51033;42.648;23.292;2022-07-12T13:24:50;0.88;;;0.70;;
30934;SDS011;51033;42.648;23.292;2022-07-12T13:27:15;0.90;;;0.57;;
30934;SDS011;51033;42.648;23.292;2022-07-12T13:29:40;0.77;;;0.60;;
30934;SDS011;51033;42.648;23.292;2022-07-12T13:32:06;1.48;;;0.80;;
30934;SDS011;51033;42.648;23.292;2022-07-12T13:34:31;0.60;;;0.60;;
30934;SDS011;51033;42.648;23.292;2022-07-12T13:36:57;3.03;;;0.77;;
30934;SDS011;51033;42.648;23.292;2022-07-12T13:39:22;0.70;;;0.70;;
30934;SDS011;51033;42.648;23.292;2022-07-12T13:42:06;1.02;;;0.80;;
30934;SDS011;51033;42.648;23.292;2022-07-12T13:44:32;1.13;;;0.70;;
30934;SDS011;51033;42.648;23.292;2022-07-12T13:46:57;0.63;;;0.63;;
30934;SDS011;51033;42.648;23.292;2022-07-12T13:49:22;2.45;;;0.75;;
30934;SDS011;51033;42.648;23.292;2022-07-12T13:51:48;0.98;;;0.90;;
30934;SDS011;51033;42.648;23.292;2022-07-12T13:54:13;0.98;;;0.80;;
30934;SDS011;51033;42.648;23.292;2022-07-12T13:56:39;1.00;;;0.68;;
30934;SDS011;51033;42.648;23.292;2022-07-12T13:59:05;4.15;;;0.98;;
30934;SDS011;51033;42.648;23.292;2022-07-12T14:01:31;1.92;;;0.80;;
30934;SDS011;51033;42.648;23.292;2022-07-12T14:03:56;1.40;;;0.70;;
30934;SDS011;51033;42.648;23.292;2022-07-12T14:06:21;1.73;;;0.90;;
30934;SDS011;51033;42.648;23.292;2022-07-12T14:08:48;2.38;;;1.38;;
30934;SDS011;51033;42.648;23.292;2022-07-12T14:11:14;0.60;;;0.60;;
30934;SDS011;51033;42.648;23.292;2022-07-12T14:13:41;0.63;;;0.60;;
30934;SDS011;51033;42.648;23.292;2022-07-12T14:16:06;1.27;;;0.70;;
30934;SDS011;51033;42.648;23.292;2022-07-12T14:18:32;2.22;;;0.88;;
30934;SDS011;51033;42.648;23.292;2022-07-12T14:20:58;3.03;;;1.08;;
30934;SDS011;51033;42.648;23.292;2022-07-12T14:23:23;1.30;;;0.68;;
30934;SDS011;51033;42.648;23.292;2022-07-12T14:25:49;0.98;;;0.98;;
30934;SDS011;51033;42.648;23.292;2022-07-12T14:28:14;4.80;;;0.70;;
30934;SDS011;51033;42.648;23.292;2022-07-12T14:30:39;0.85;;;0.70;;
30934;SDS011;51033;42.648;23.292;2022-07-12T14:33:05;1.10;;;0.80;;
30934;SDS011;51033;42.648;23.292;2022-07-12T14:35:30;2.60;;;1.08;;
30934;SDS011;51033;42.648;23.292;2022-07-12T14:37:56;1.50;;;0.95;;
30934;SDS011;51033;42.648;23.292;2022-07-12T14:40:21;3.33;;;0.95;;
30934;SDS011;51033;42.648;23.292;2022-07-12T14:42:46;1.65;;;0.60;;
30934;SDS011;51033;42.648;23.292;2022-07-12T14:45:12;1.10;;;0.88;;
30934;SDS011;51033;42.648;23.292;2022-07-12T14:47:38;1.40;;;0.60;;
30934;SDS011;51033;42.648;23.292;2022-07-12T14:50:04;1.58;;;0.60;;
30934;SDS011;51033;42.648;23.292;2022-07-12T14:52:30;2.75;;;0.80;;
30934;SDS011;51033;42.648;23.292;2022-07-12T14:54:56;1.65;;;0.75;;
30934;SDS011;51033;42.648;23.292;2022-07-12T14:57:21;0.80;;;0.70;;
30934;SDS011;51033;42.648;23.292;2022-07-12T14:59:47;0.80;;;0.65;;